createdAt,value
2017-10-17T00:00:07.332Z,73.90
2017-10-17T00:02:33.650Z,75.20
2017-10-17T00:05:00.141Z,75.50
2017-10-17T00:07:27.196Z,75.10
2017-10-17T00:29:23.639Z,74.80
2017-10-17T00:31:49.994Z,77.80
2017-10-17T00:34:17.945Z,76.80
2017-10-17T00:36:44.548Z,77.30
2017-10-17T00:39:11.534Z,76.90
2017-10-17T00:41:38.457Z,76.90
2017-10-17T00:44:04.901Z,76.70
2017-10-17T00:46:32.765Z,75.40
2017-10-17T01:08:29.557Z,75.40
2017-10-17T01:10:56.591Z,76.60
2017-10-17T01:13:22.800Z,77.60
2017-10-17T01:15:49.668Z,75.90
2017-10-17T01:18:16.533Z,75.90
2017-10-17T01:20:48.548Z,75.60
2017-10-17T01:26:13.403Z,75.30
2017-10-17T01:28:40.659Z,75.20
2017-10-17T01:31:07.408Z,75.20
2017-10-17T01:33:33.670Z,75.30
2017-10-17T01:36:01.189Z,75.40
2017-10-17T01:38:28.947Z,75.40
2017-10-17T01:40:55.721Z,76.30
2017-10-17T01:43:26.909Z,76.30
2017-10-17T01:45:55.731Z,76.30
2017-10-17T01:48:23.234Z,76.30
2017-10-17T01:51:05.095Z,76.30
2017-10-17T01:53:36.809Z,75.80
2017-10-17T01:56:03.702Z,76.50
2017-10-17T01:58:30.380Z,75.40
2017-10-17T02:00:57.438Z,75.50
2017-10-17T02:03:23.964Z,75.50
2017-10-17T02:05:50.811Z,77.10
2017-10-17T02:08:17.714Z,77.30
2017-10-17T02:10:50.663Z,76.80
2017-10-17T02:13:17.095Z,76.90
2017-10-17T02:15:44.917Z,75.00
2017-10-17T02:18:14.613Z,75.00
2017-10-17T02:20:41.629Z,74.80
2017-10-17T02:23:08.668Z,75.90
2017-10-17T02:25:43.859Z,74.70
2017-10-17T02:28:16.451Z,75.70
2017-10-17T02:31:00.517Z,75.80
2017-10-17T02:33:29.728Z,76.30
2017-10-17T02:35:57.727Z,75.70
2017-10-17T02:38:25.618Z,75.80
2017-10-17T02:40:54.084Z,75.60
2017-10-17T02:43:33.374Z,76.80
2017-10-17T02:45:59.582Z,76.70
2017-10-17T02:48:33.470Z,76.70
2017-10-17T02:51:00.373Z,76.30
2017-10-17T02:53:27.405Z,75.80
2017-10-17T02:55:54.218Z,75.80
2017-10-17T02:58:20.572Z,76.00
2017-10-17T03:00:48.742Z,76.70
2017-10-17T03:03:36.213Z,75.70
2017-10-17T03:06:03.177Z,75.20
2017-10-17T03:08:29.618Z,75.20
2017-10-17T03:10:55.846Z,75.90
2017-10-17T03:13:22.482Z,77.10
2017-10-17T03:15:49.674Z,76.30
2017-10-17T03:18:17.897Z,76.10
2017-10-17T03:20:44.883Z,76.00
2017-10-17T03:23:15.239Z,75.90
2017-10-17T03:25:43.420Z,76.10
2017-10-17T03:28:14.968Z,75.80
2017-10-17T03:31:09.198Z,75.70
2017-10-17T03:33:36.741Z,75.50
2017-10-17T03:36:23.584Z,75.50
2017-10-17T03:38:52.799Z,75.30
2017-10-17T03:41:24.497Z,75.20
2017-10-17T03:43:53.433Z,75.40
2017-10-17T03:46:41.291Z,75.40
2017-10-17T03:49:08.241Z,75.70
2017-10-17T03:51:35.135Z,76.30
2017-10-17T03:54:04.201Z,75.80
2017-10-17T03:56:31.067Z,75.90
2017-10-17T04:01:53.619Z,75.20
2017-10-17T04:04:46.212Z,75.00
2017-10-17T04:07:35.567Z,75.40
2017-10-17T04:19:54.611Z,75.20
2017-10-17T04:22:33.700Z,74.90
2017-10-17T04:25:09.120Z,75.60
2017-10-17T04:27:51.548Z,75.60
2017-10-17T04:30:43.226Z,75.70
2017-10-17T04:33:32.120Z,75.70
2017-10-17T04:36:05.812Z,75.70
2017-10-17T04:38:32.313Z,75.50
2017-10-17T04:40:59.982Z,75.70
2017-10-17T04:43:51.085Z,75.70
2017-10-17T04:46:21.040Z,76.20
2017-10-17T04:48:58.288Z,75.60
2017-10-17T04:51:28.652Z,75.50
2017-10-17T04:54:09.182Z,75.10
2017-10-17T04:56:35.816Z,75.00
2017-10-17T05:01:57.267Z,75.40
2017-10-17T05:04:25.641Z,75.40
2017-10-17T05:06:54.836Z,76.20
2017-10-17T05:09:25.021Z,75.40
2017-10-17T05:11:51.678Z,75.40
2017-10-17T05:14:24.732Z,75.50
2017-10-17T05:17:09.270Z,75.40
2017-10-17T05:19:45.561Z,75.50
2017-10-17T05:22:13.815Z,75.30
2017-10-17T05:24:41.830Z,75.50
2017-10-17T05:27:11.236Z,75.40
2017-10-17T05:29:38.294Z,75.40
2017-10-17T05:32:04.759Z,75.30
2017-10-17T05:34:33.096Z,75.30
2017-10-17T05:37:15.295Z,75.30
2017-10-17T05:39:43.315Z,75.30
2017-10-17T05:42:10.004Z,75.30
2017-10-17T05:44:48.356Z,75.30
2017-10-17T05:47:21.314Z,75.30
2017-10-17T05:49:54.322Z,75.30
2017-10-17T05:52:20.580Z,75.20
2017-10-17T05:54:47.261Z,75.40
2017-10-17T05:57:14.525Z,75.50
2017-10-17T05:59:42.208Z,75.60
2017-10-17T06:02:09.877Z,75.50
2017-10-17T06:04:37.334Z,75.60
2017-10-17T06:07:04.371Z,75.60
2017-10-17T06:09:30.662Z,75.60
2017-10-17T06:11:57.492Z,75.60
2017-10-17T06:14:23.690Z,75.60
2017-10-17T06:16:49.903Z,75.70
2017-10-17T06:19:16.701Z,75.80
2017-10-17T06:21:42.903Z,75.90
2017-10-17T06:24:09.830Z,76.00
2017-10-17T06:26:36.170Z,76.00
2017-10-17T06:29:03.173Z,76.50
2017-10-17T06:31:30.534Z,76.40
2017-10-17T06:33:57.587Z,76.20
2017-10-17T06:36:23.796Z,76.10
2017-10-17T06:38:51.531Z,76.70
2017-10-17T06:41:17.736Z,76.60
2017-10-17T06:43:44.004Z,76.70
2017-10-17T06:46:10.212Z,76.80
2017-10-17T06:48:37.001Z,76.80
2017-10-17T06:51:03.773Z,76.90
2017-10-17T06:53:30.585Z,76.90
2017-10-17T06:55:58.729Z,77.10
2017-10-17T06:58:25.496Z,77.10
2017-10-17T07:00:52.202Z,77.00
2017-10-17T07:03:19.295Z,77.10
2017-10-17T07:05:45.535Z,77.10
2017-10-17T07:08:11.809Z,76.90
2017-10-17T07:10:38.766Z,77.10
2017-10-17T07:13:05.731Z,78.20
2017-10-17T07:15:33.214Z,78.20
2017-10-17T07:17:59.956Z,78.90
2017-10-17T07:20:27.702Z,80.30
2017-10-17T07:22:54.467Z,79.60
2017-10-17T07:25:21.806Z,78.60
2017-10-17T07:27:48.839Z,77.10
2017-10-17T07:30:15.134Z,77.00
2017-10-17T07:32:44.295Z,75.80
2017-10-17T07:35:11.519Z,75.80
2017-10-17T07:37:38.020Z,74.50
2017-10-17T07:40:05.663Z,73.10
2017-10-17T07:42:32.430Z,73.10
2017-10-17T07:44:59.919Z,71.50
2017-10-17T07:47:26.836Z,71.40
2017-10-17T07:49:53.732Z,71.20
2017-10-17T07:52:20.810Z,72.20
2017-10-17T07:54:48.383Z,71.10
2017-10-17T07:57:16.009Z,70.00
2017-10-17T07:59:42.751Z,70.00
2017-10-17T08:02:10.518Z,68.40
2017-10-17T08:04:36.817Z,68.60
2017-10-17T08:07:03.214Z,67.50
2017-10-17T08:09:30.320Z,68.10
2017-10-17T08:11:57.585Z,68.70
2017-10-17T08:14:23.837Z,69.00
2017-10-17T08:16:51.297Z,67.50
2017-10-17T08:19:18.793Z,67.70
2017-10-17T08:21:44.988Z,67.60
2017-10-17T08:24:11.849Z,67.20
2017-10-17T08:26:38.340Z,67.60
2017-10-17T08:29:05.350Z,67.30
2017-10-17T08:31:32.342Z,67.20
2017-10-17T08:33:59.314Z,68.30
2017-10-17T08:36:25.671Z,68.30
2017-10-17T08:38:53.305Z,66.20
2017-10-17T08:41:20.562Z,66.20
2017-10-17T08:43:47.027Z,65.80
2017-10-17T08:46:14.041Z,65.90
2017-10-17T08:48:40.506Z,65.80
2017-10-17T08:51:08.167Z,65.90
2017-10-17T08:53:34.421Z,65.90
2017-10-17T08:56:01.547Z,65.60
2017-10-17T08:58:28.813Z,65.10
2017-10-17T09:00:56.786Z,64.40
2017-10-17T09:03:23.006Z,64.40
2017-10-17T09:05:49.769Z,65.60
2017-10-17T09:08:24.585Z,65.20
2017-10-17T09:10:50.834Z,65.00
2017-10-17T09:13:17.819Z,65.40
2017-10-17T09:15:44.410Z,65.40
2017-10-17T09:18:15.615Z,66.60
2017-10-17T09:20:43.248Z,67.30
2017-10-17T09:23:09.966Z,67.20
2017-10-17T09:25:36.555Z,67.00
2017-10-17T09:28:02.771Z,65.40
2017-10-17T09:30:29.568Z,63.50
2017-10-17T09:32:56.571Z,64.20
2017-10-17T09:35:24.352Z,64.10
2017-10-17T09:37:51.579Z,64.00
2017-10-17T09:40:18.313Z,65.50
2017-10-17T09:42:45.738Z,64.30
2017-10-17T09:45:12.779Z,63.10
2017-10-17T09:47:39.011Z,63.10
2017-10-17T09:50:05.833Z,62.40
2017-10-17T09:52:32.796Z,62.40
2017-10-17T09:54:58.992Z,62.40
2017-10-17T09:57:25.269Z,61.70
2017-10-17T09:59:52.528Z,61.10
2017-10-17T10:02:18.750Z,61.80
2017-10-17T10:04:45.989Z,60.30
2017-10-17T10:07:12.227Z,60.80
2017-10-17T10:09:38.521Z,60.70
2017-10-17T10:12:06.068Z,61.00
2017-10-17T10:14:32.296Z,61.00
2017-10-17T10:16:58.586Z,61.50
2017-10-17T10:19:24.809Z,61.50
2017-10-17T10:21:51.760Z,59.80
2017-10-17T10:24:18.651Z,59.30
2017-10-17T10:26:46.131Z,59.10
2017-10-17T10:29:12.988Z,59.10
2017-10-17T10:31:39.532Z,59.50
2017-10-17T10:34:06.750Z,59.30
2017-10-17T10:36:34.169Z,59.30
2017-10-17T10:39:01.459Z,58.60
2017-10-17T10:41:28.249Z,58.40
2017-10-17T10:44:02.067Z,58.10
2017-10-17T10:46:29.284Z,57.40
2017-10-17T10:48:55.810Z,58.40
2017-10-17T10:51:22.866Z,57.50
2017-10-17T10:53:49.079Z,57.50
2017-10-17T10:56:16.879Z,58.00
2017-10-17T10:58:43.091Z,57.40
2017-10-17T11:01:09.301Z,56.60
2017-10-17T11:03:35.802Z,56.70
2017-10-17T11:06:03.349Z,57.30
2017-10-17T11:08:29.591Z,57.30
2017-10-17T11:10:57.134Z,56.30
2017-10-17T11:13:24.376Z,56.20
2017-10-17T11:15:50.637Z,56.80
2017-10-17T11:18:18.288Z,56.70
2017-10-17T11:20:45.055Z,56.70
2017-10-17T11:23:11.439Z,54.50
2017-10-17T11:25:38.448Z,54.20
2017-10-17T11:28:04.675Z,54.20
2017-10-17T11:30:31.213Z,54.20
2017-10-17T11:32:57.459Z,53.80
2017-10-17T11:35:23.669Z,53.70
2017-10-17T11:37:49.877Z,53.60
2017-10-17T11:40:23.336Z,54.10
2017-10-17T11:43:01.977Z,52.80
2017-10-17T11:45:28.935Z,52.50
2017-10-17T11:47:56.499Z,52.50
2017-10-17T11:50:22.808Z,52.80
2017-10-17T11:52:49.762Z,52.70
2017-10-17T11:55:17.356Z,52.60
2017-10-17T11:57:43.596Z,52.60
2017-10-17T12:00:11.360Z,52.60
2017-10-17T12:02:39.510Z,53.50
2017-10-17T12:05:05.732Z,53.40
2017-10-17T12:07:31.974Z,52.50
2017-10-17T12:09:58.431Z,52.30
2017-10-17T12:12:25.456Z,52.80
2017-10-17T12:14:52.965Z,52.80
2017-10-17T12:17:19.237Z,53.80
2017-10-17T12:19:46.251Z,53.30
2017-10-17T12:22:13.213Z,52.70
2017-10-17T12:24:39.968Z,52.70
2017-10-17T12:27:07.122Z,53.00
2017-10-17T12:29:33.946Z,52.80
2017-10-17T12:32:00.213Z,53.50
2017-10-17T12:34:27.432Z,53.00
2017-10-17T12:36:53.725Z,53.30
2017-10-17T12:39:22.159Z,52.50
2017-10-17T12:41:48.384Z,52.40
2017-10-17T12:44:14.764Z,52.10
2017-10-17T12:46:42.768Z,52.20
2017-10-17T12:49:09.485Z,52.20
2017-10-17T12:51:36.978Z,52.50
2017-10-17T12:54:04.215Z,52.50
2017-10-17T12:56:31.216Z,52.10
2017-10-17T12:58:57.618Z,51.40
2017-10-17T13:01:24.524Z,52.00
2017-10-17T13:03:51.841Z,51.40
2017-10-17T13:06:19.281Z,51.20
2017-10-17T13:08:46.325Z,51.70
2017-10-17T13:11:13.573Z,51.70
2017-10-17T13:13:40.635Z,50.50
2017-10-17T13:16:07.692Z,50.50
2017-10-17T13:18:34.120Z,49.90
2017-10-17T13:21:01.791Z,50.30
2017-10-17T13:23:28.017Z,50.30
2017-10-17T13:25:54.662Z,51.30
2017-10-17T13:28:21.673Z,50.40
2017-10-17T13:30:48.520Z,50.40
2017-10-17T13:33:15.379Z,50.90
2017-10-17T13:35:42.622Z,49.90
2017-10-17T13:38:09.457Z,50.70
2017-10-17T13:40:37.112Z,49.90
2017-10-17T13:43:05.182Z,49.30
2017-10-17T13:45:31.436Z,49.50
2017-10-17T13:47:58.061Z,48.90
2017-10-17T13:50:25.895Z,49.00
2017-10-17T13:52:52.435Z,49.00
2017-10-17T13:55:21.654Z,48.50
2017-10-17T13:57:49.075Z,49.10
2017-10-17T14:00:15.827Z,49.10
2017-10-17T14:02:43.069Z,49.30
2017-10-17T14:05:09.294Z,49.10
2017-10-17T14:07:35.499Z,49.20
2017-10-17T14:10:02.522Z,48.50
2017-10-17T14:12:29.363Z,48.50
2017-10-17T14:14:55.609Z,48.40
2017-10-17T14:17:22.563Z,48.20
2017-10-17T14:19:50.187Z,47.30
2017-10-17T14:22:16.480Z,47.30
2017-10-17T14:24:42.859Z,48.10
2017-10-17T14:27:09.197Z,48.20
2017-10-17T14:29:35.576Z,48.80
2017-10-17T14:32:03.129Z,48.20
2017-10-17T14:34:29.339Z,48.20
2017-10-17T14:36:55.663Z,48.20
2017-10-17T14:39:22.639Z,48.40
2017-10-17T14:41:48.907Z,48.30
2017-10-17T14:44:15.452Z,48.40
2017-10-17T14:46:42.942Z,48.70
2017-10-17T14:49:10.310Z,49.10
2017-10-17T14:51:36.621Z,49.10
2017-10-17T14:54:02.916Z,49.50
2017-10-17T14:56:29.164Z,49.50
2017-10-17T14:58:56.209Z,49.30
2017-10-17T15:01:23.228Z,49.40
2017-10-17T15:03:49.469Z,49.40
2017-10-17T15:06:15.690Z,49.60
2017-10-17T15:08:42.227Z,50.10
2017-10-17T15:11:08.448Z,51.70
2017-10-17T15:13:34.753Z,52.80
2017-10-17T15:16:01.073Z,53.20
2017-10-17T15:18:27.350Z,53.90
2017-10-17T15:20:53.605Z,53.60
2017-10-17T15:23:20.604Z,54.20
2017-10-17T15:25:46.921Z,54.20
2017-10-17T15:28:13.217Z,55.10
2017-10-17T15:30:39.506Z,55.50
2017-10-17T15:33:05.899Z,56.30
2017-10-17T15:35:32.310Z,55.90
2017-10-17T15:38:00.284Z,57.00
2017-10-17T15:40:26.747Z,57.00
2017-10-17T15:42:54.745Z,57.10
2017-10-17T15:45:21.111Z,57.00
2017-10-17T15:47:47.902Z,57.80
2017-10-17T15:50:14.667Z,58.50
2017-10-17T15:52:42.191Z,58.30
2017-10-17T15:55:08.566Z,58.20
2017-10-17T15:57:35.530Z,59.20
2017-10-17T16:00:03.091Z,59.10
2017-10-17T16:02:30.140Z,60.40
2017-10-17T16:07:29.964Z,60.50
2017-10-17T16:09:56.211Z,61.00
2017-10-17T16:12:23.066Z,60.90
2017-10-17T16:14:50.668Z,61.40
2017-10-17T16:17:18.865Z,62.40
2017-10-17T16:19:45.483Z,62.30
2017-10-17T16:22:13.365Z,62.50
2017-10-17T16:24:40.428Z,63.90
2017-10-17T16:27:07.030Z,63.80
2017-10-17T16:29:34.610Z,62.60
2017-10-17T16:32:01.081Z,62.50
2017-10-17T16:34:28.541Z,65.00
2017-10-17T16:36:54.769Z,65.00
2017-10-17T16:39:21.762Z,63.60
2017-10-17T16:41:49.339Z,65.40
2017-10-17T16:44:15.628Z,64.70
2017-10-17T16:46:42.691Z,65.00
2017-10-17T16:49:10.291Z,65.20
2017-10-17T16:51:37.782Z,65.20
2017-10-17T16:54:04.916Z,64.20
2017-10-17T16:56:32.464Z,63.30
2017-10-17T16:58:58.768Z,63.30
2017-10-17T17:01:25.001Z,65.00
2017-10-17T17:03:51.575Z,63.20
2017-10-17T17:06:19.751Z,67.50
2017-10-17T17:08:47.877Z,67.40
2017-10-17T17:11:14.101Z,67.40
2017-10-17T17:13:40.855Z,68.40
2017-10-17T17:16:07.907Z,68.30
2017-10-17T17:18:34.155Z,68.30
2017-10-17T17:21:00.635Z,68.30
2017-10-17T17:23:27.807Z,66.00
2017-10-17T17:25:55.588Z,68.30
2017-10-17T17:28:23.113Z,68.50
2017-10-17T17:30:50.072Z,67.90
2017-10-17T17:33:16.352Z,67.90
2017-10-17T17:35:42.607Z,68.90
2017-10-17T17:38:10.217Z,68.70
2017-10-17T17:40:36.979Z,68.60
2017-10-17T17:43:03.782Z,69.10
2017-10-17T17:45:31.418Z,68.90
2017-10-17T17:47:58.697Z,70.40
2017-10-17T17:50:25.448Z,70.30
2017-10-17T17:52:51.773Z,70.60
2017-10-17T17:55:19.102Z,70.40
2017-10-17T17:57:45.517Z,71.70
2017-10-17T18:00:12.965Z,71.80
2017-10-17T18:02:39.903Z,71.80
2017-10-17T18:05:06.973Z,71.20
2017-10-17T18:07:33.940Z,71.40
2017-10-17T18:10:00.380Z,71.20
2017-10-17T18:12:27.388Z,71.00
2017-10-17T18:14:54.950Z,71.40
2017-10-17T18:17:22.585Z,70.80
2017-10-17T18:19:48.833Z,70.80
2017-10-17T18:22:15.746Z,71.20
2017-10-17T18:24:42.437Z,70.60
2017-10-17T18:27:09.556Z,71.30
2017-10-17T18:29:36.426Z,71.10
2017-10-17T18:32:03.443Z,70.10
2017-10-17T18:34:30.184Z,70.10
2017-10-17T18:36:56.434Z,70.20
2017-10-17T18:39:23.712Z,71.20
2017-10-17T18:41:49.958Z,71.10
2017-10-17T18:44:16.802Z,72.50
2017-10-17T18:46:43.112Z,71.90
2017-10-17T18:49:10.594Z,73.10
2017-10-17T18:51:38.083Z,70.30
2017-10-17T18:54:04.410Z,70.20
2017-10-17T18:56:31.009Z,71.30
2017-10-17T18:58:58.496Z,71.00
2017-10-17T19:01:25.142Z,71.00
2017-10-17T19:03:52.173Z,70.10
2017-10-17T19:06:19.068Z,70.10
2017-10-17T19:08:47.100Z,70.40
2017-10-17T19:11:14.367Z,69.60
2017-10-17T19:13:41.377Z,70.00
2017-10-17T19:16:07.595Z,69.90
2017-10-17T19:18:38.860Z,69.60
2017-10-17T19:21:05.669Z,68.60
2017-10-17T19:23:31.938Z,69.40
2017-10-17T19:25:58.734Z,69.00
2017-10-17T19:28:25.300Z,71.10
2017-10-17T19:30:52.387Z,70.50
2017-10-17T19:33:19.787Z,69.60
2017-10-17T19:35:46.002Z,69.40
2017-10-17T19:38:12.887Z,69.60
2017-10-17T19:40:39.131Z,69.30
2017-10-17T19:43:05.475Z,69.70
2017-10-17T19:45:32.680Z,70.20
2017-10-17T19:47:59.092Z,70.20
2017-10-17T19:50:25.403Z,70.50
2017-10-17T19:52:52.165Z,71.30
2017-10-17T19:55:19.274Z,72.70
2017-10-17T19:57:46.415Z,70.50
2017-10-17T20:00:14.104Z,71.60
2017-10-17T20:02:40.857Z,71.60
2017-10-17T20:05:07.301Z,72.10
2017-10-17T20:07:33.751Z,72.20
2017-10-17T20:10:01.013Z,71.10
2017-10-17T20:12:28.057Z,70.70
2017-10-17T20:14:54.823Z,70.20
2017-10-17T20:17:21.804Z,71.50
2017-10-17T20:19:48.643Z,71.50
2017-10-17T20:22:15.702Z,72.10
2017-10-17T20:24:42.116Z,72.10
2017-10-17T20:27:09.007Z,71.60
2017-10-17T20:29:35.282Z,71.10
2017-10-17T20:32:02.123Z,73.30
2017-10-17T20:34:28.362Z,72.10
2017-10-17T20:36:55.577Z,72.80
2017-10-17T20:39:23.167Z,73.00
2017-10-17T20:41:50.319Z,72.90
2017-10-17T20:44:16.552Z,72.60
2017-10-17T20:46:42.844Z,72.90
2017-10-17T20:49:10.438Z,73.10
2017-10-17T20:51:37.176Z,72.50
2017-10-17T20:54:03.405Z,72.70
2017-10-17T20:56:30.295Z,72.50
2017-10-17T20:58:59.254Z,72.50
2017-10-17T21:01:26.123Z,74.40
2017-10-17T21:03:53.726Z,75.20
2017-10-17T21:06:21.385Z,76.00
2017-10-17T21:08:47.612Z,76.00
2017-10-17T21:11:15.276Z,75.80
2017-10-17T21:13:42.764Z,74.30
2017-10-17T21:16:09.528Z,74.30
2017-10-17T21:18:37.295Z,74.80
2017-10-17T21:21:04.069Z,74.20
2017-10-17T21:23:31.379Z,74.20
2017-10-17T21:25:58.393Z,75.10
2017-10-17T21:28:24.708Z,74.90
2017-10-17T21:30:52.885Z,75.90
2017-10-17T21:33:19.865Z,75.40
2017-10-17T21:35:48.489Z,75.30
2017-10-17T21:38:15.232Z,76.90
2017-10-17T21:40:41.432Z,76.30
2017-10-17T21:43:07.721Z,75.50
2017-10-17T21:45:34.887Z,76.00
2017-10-17T21:48:01.508Z,75.60
2017-10-17T21:50:29.227Z,75.40
2017-10-17T21:52:56.225Z,75.90
2017-10-17T21:55:23.146Z,75.90
2017-10-17T21:57:50.111Z,74.90
2017-10-17T22:00:16.889Z,74.80
2017-10-17T22:02:43.732Z,74.60
2017-10-17T22:05:10.169Z,73.80
2017-10-17T22:07:37.041Z,73.50
2017-10-17T22:10:04.808Z,73.90
2017-10-17T22:12:33.088Z,74.40
2017-10-17T22:15:00.056Z,74.80
2017-10-17T22:17:27.077Z,74.70
2017-10-17T22:19:54.528Z,76.10
2017-10-17T22:22:21.186Z,76.10
2017-10-17T22:24:47.656Z,76.40
2017-10-17T22:27:16.409Z,76.60
2017-10-17T22:29:42.861Z,76.50
2017-10-17T22:32:09.303Z,75.30
2017-10-17T22:34:36.053Z,75.10
2017-10-17T22:37:03.272Z,75.40
2017-10-17T22:39:29.971Z,75.50
2017-10-17T22:41:57.252Z,75.40
2017-10-17T22:44:24.924Z,75.60
2017-10-17T22:46:53.099Z,76.30
2017-10-17T22:49:20.592Z,76.20
2017-10-17T22:51:47.527Z,76.00
2017-10-17T22:54:14.607Z,75.90
2017-10-17T22:56:41.914Z,75.80
2017-10-17T22:59:09.553Z,76.40
2017-10-17T23:01:36.726Z,76.60
2017-10-17T23:04:03.971Z,76.60
2017-10-17T23:06:30.803Z,76.70
2017-10-17T23:08:57.072Z,75.90
2017-10-17T23:11:23.268Z,74.60
2017-10-17T23:13:49.495Z,74.50
2017-10-17T23:16:16.099Z,74.50
2017-10-17T23:18:56.373Z,73.90
2017-10-17T23:21:23.906Z,74.10
2017-10-17T23:23:50.282Z,74.10
2017-10-17T23:26:17.882Z,75.60
2017-10-17T23:28:45.389Z,76.50
2017-10-17T23:31:11.619Z,76.30
2017-10-17T23:33:38.494Z,75.40
2017-10-17T23:36:05.212Z,75.60
2017-10-17T23:38:31.979Z,74.90
2017-10-17T23:40:58.459Z,74.10
2017-10-17T23:43:25.646Z,73.90
2017-10-17T23:45:51.862Z,73.90
2017-10-17T23:48:18.068Z,74.00
2017-10-17T23:50:45.011Z,73.90
2017-10-17T23:53:12.385Z,73.90
2017-10-17T23:55:39.372Z,74.30
2017-10-17T23:58:06.034Z,74.60
